sensor_id;sensor_type;location;lat;lon;timestamp;pressure;altitude;pressure_sealevel;temperature;humidity
55032;BME280;40928;51.076;7.950;2023-09-19T00:00:57;96377.13;;;14.77;100.00
55032;BME280;40928;51.076;7.950;2023-09-19T00:03:23;96385.19;;;14.77;100.00
55032;BME280;40928;51.076;7.950;2023-09-19T00:05:50;96385.78;;;14.69;100.00
55032;BME280;40928;51.076;7.950;2023-09-19T00:08:16;96381.22;;;14.65;100.00
55032;BME280;40928;51.076;7.950;2023-09-19T00:10:42;96389.00;;;14.66;100.00
55032;BME280;40928;51.076;7.950;2023-09-19T00:13:08;96394.66;;;14.70;100.00
55032;BME280;40928;51.076;7.950;2023-09-19T00:15:40;96391.00;;;14.50;100.00
55032;BME280;40928;51.076;7.950;2023-09-19T00:18:15;96394.75;;;14.54;100.00
55032;BME280;40928;51.076;7.950;2023-09-19T00:20:42;96399.84;;;14.51;100.00
55032;BME280;40928;51.076;7.950;2023-09-19T00:23:15;96402.59;;;14.45;100.00
55032;BME280;40928;51.076;7.950;2023-09-19T00:25:41;96399.09;;;14.45;100.00
55032;BME280;40928;51.076;7.950;2023-09-19T00:28:14;96396.69;;;14.43;100.00
55032;BME280;40928;51.076;7.950;2023-09-19T00:30:43;96416.34;;;14.39;100.00
55032;BME280;40928;51.076;7.950;2023-09-19T00:33:09;96402.94;;;14.34;100.00
55032;BME280;40928;51.076;7.950;2023-09-19T00:35:46;96410.78;;;14.25;100.00
55032;BME280;40928;51.076;7.950;2023-09-19T00:38:12;96409.94;;;14.29;100.00
55032;BME280;40928;51.076;7.950;2023-09-19T00:40:44;96420.09;;;14.38;100.00
55032;BME280;40928;51.076;7.950;2023-09-19T00:43:13;96408.59;;;14.32;100.00
55032;BME280;40928;51.076;7.950;2023-09-19T00:45:42;96411.00;;;14.34;100.00
55032;BME280;40928;51.076;7.950;2023-09-19T00:48:09;96411.88;;;14.19;100.00
55032;BME280;40928;51.076;7.950;2023-09-19T00:50:35;96418.06;;;14.19;100.00
55032;BME280;40928;51.076;7.950;2023-09-19T00:53:02;96412.66;;;14.24;100.00
55032;BME280;40928;51.076;7.950;2023-09-19T00:55:36;96417.81;;;14.15;100.00
55032;BME280;40928;51.076;7.950;2023-09-19T00:58:05;96425.81;;;14.21;100.00
55032;BME280;40928;51.076;7.950;2023-09-19T01:00:36;96431.75;;;14.18;100.00
55032;BME280;40928;51.076;7.950;2023-09-19T01:03:08;96424.25;;;14.14;100.00
55032;BME280;40928;51.076;7.950;2023-09-19T01:05:35;96423.72;;;14.12;100.00
55032;BME280;40928;51.076;7.950;2023-09-19T01:08:01;96421.06;;;14.02;100.00
55032;BME280;40928;51.076;7.950;2023-09-19T01:10:30;96420.56;;;14.00;100.00
55032;BME280;40928;51.076;7.950;2023-09-19T01:13:05;96436.16;;;13.98;100.00
55032;BME280;40928;51.076;7.950;2023-09-19T01:29:37;96440.56;;;13.68;100.00
55032;BME280;40928;51.076;7.950;2023-09-19T01:32:06;96438.94;;;13.62;100.00
55032;BME280;40928;51.076;7.950;2023-09-19T01:34:48;96441.63;;;13.57;100.00
55032;BME280;40928;51.076;7.950;2023-09-19T01:37:15;96447.31;;;13.45;100.00
55032;BME280;40928;51.076;7.950;2023-09-19T01:39:50;96446.22;;;13.51;100.00
55032;BME280;40928;51.076;7.950;2023-09-19T01:42:41;96458.84;;;13.45;100.00
55032;BME280;40928;51.076;7.950;2023-09-19T01:45:35;96455.63;;;13.48;100.00
55032;BME280;40928;51.076;7.950;2023-09-19T01:51:14;96457.22;;;13.44;100.00
55032;BME280;40928;51.076;7.950;2023-09-19T01:53:48;96459.38;;;13.37;100.00
55032;BME280;40928;51.076;7.950;2023-09-19T01:56:22;96456.41;;;13.38;100.00
55032;BME280;40928;51.076;7.950;2023-09-19T01:58:52;96453.47;;;13.40;100.00
55032;BME280;40928;51.076;7.950;2023-09-19T02:01:22;96460.44;;;13.41;100.00
55032;BME280;40928;51.076;7.950;2023-09-19T02:03:50;96459.38;;;13.42;100.00
55032;BME280;40928;51.076;7.950;2023-09-19T02:06:16;96458.84;;;13.45;100.00
55032;BME280;40928;51.076;7.950;2023-09-19T02:08:43;96462.06;;;13.47;100.00
55032;BME280;40928;51.076;7.950;2023-09-19T02:11:08;96457.75;;;13.51;100.00
55032;BME280;40928;51.076;7.950;2023-09-19T02:13:34;96456.13;;;13.55;100.00
55032;BME280;40928;51.076;7.950;2023-09-19T02:15:59;96469.03;;;13.43;100.00
55032;BME280;40928;51.076;7.950;2023-09-19T02:18:25;96466.34;;;13.43;100.00
55032;BME280;40928;51.076;7.950;2023-09-19T02:20:53;96466.59;;;13.52;100.00
55032;BME280;40928;51.076;7.950;2023-09-19T02:23:19;96462.31;;;13.56;100.00
55032;BME280;40928;51.076;7.950;2023-09-19T02:25:52;96469.00;;;13.59;100.00
55032;BME280;40928;51.076;7.950;2023-09-19T02:28:19;96475.44;;;13.58;100.00
55032;BME280;40928;51.076;7.950;2023-09-19T02:30:48;96473.31;;;13.39;100.00
55032;BME280;40928;51.076;7.950;2023-09-19T02:33:15;96476.28;;;13.43;100.00
55032;BME280;40928;51.076;7.950;2023-09-19T02:35:42;96476.00;;;13.49;100.00
55032;BME280;40928;51.076;7.950;2023-09-19T02:38:08;96487.81;;;13.53;100.00
55032;BME280;40928;51.076;7.950;2023-09-19T02:40:37;96480.28;;;13.50;100.00
55032;BME280;40928;51.076;7.950;2023-09-19T02:43:02;96480.25;;;13.55;100.00
55032;BME280;40928;51.076;7.950;2023-09-19T02:45:28;96463.66;;;13.53;100.00
55032;BME280;40928;51.076;7.950;2023-09-19T02:47:56;96469.00;;;13.59;100.00
55032;BME280;40928;51.076;7.950;2023-09-19T02:50:22;96470.06;;;13.63;100.00
55032;BME280;40928;51.076;7.950;2023-09-19T02:52:48;96472.75;;;13.63;100.00
55032;BME280;40928;51.076;7.950;2023-09-19T02:55:15;96475.72;;;13.61;100.00
55032;BME280;40928;51.076;7.950;2023-09-19T02:57:50;96477.06;;;13.53;100.00
55032;BME280;40928;51.076;7.950;2023-09-19T03:00:17;96472.50;;;13.54;100.00
55032;BME280;40928;51.076;7.950;2023-09-19T03:02:55;96486.72;;;13.54;100.00
55032;BME280;40928;51.076;7.950;2023-09-19T03:05:22;96473.84;;;13.46;100.00
55032;BME280;40928;51.076;7.950;2023-09-19T03:07:50;96481.38;;;13.44;100.00
55032;BME280;40928;51.076;7.950;2023-09-19T03:10:20;96477.06;;;13.53;100.00
55032;BME280;40928;51.076;7.950;2023-09-19T03:12:49;96478.69;;;13.54;100.00
55032;BME280;40928;51.076;7.950;2023-09-19T03:15:16;96487.53;;;13.50;100.00
55032;BME280;40928;51.076;7.950;2023-09-19T03:17:45;96496.13;;;13.42;100.00
55032;BME280;40928;51.076;7.950;2023-09-19T03:20:11;96495.84;;;13.43;100.00
55032;BME280;40928;51.076;7.950;2023-09-19T03:22:38;96505.25;;;13.40;100.00
55032;BME280;40928;51.076;7.950;2023-09-19T03:25:06;96501.75;;;13.40;100.00
55032;BME280;40928;51.076;7.950;2023-09-19T03:27:35;96502.28;;;13.37;100.00
55032;BME280;40928;51.076;7.950;2023-09-19T03:30:01;96492.88;;;13.34;100.00
55032;BME280;40928;51.076;7.950;2023-09-19T03:32:31;96507.09;;;13.35;100.00
55032;BME280;40928;51.076;7.950;2023-09-19T03:34:56;96507.63;;;13.32;100.00
55032;BME280;40928;51.076;7.950;2023-09-19T03:37:22;96507.63;;;13.37;100.00
55032;BME280;40928;51.076;7.950;2023-09-19T03:39:48;96504.97;;;13.37;100.00
55032;BME280;40928;51.076;7.950;2023-09-19T03:42:14;96505.47;;;13.29;100.00
55032;BME280;40928;51.076;7.950;2023-09-19T03:44:40;96508.97;;;13.34;100.00
55032;BME280;40928;51.076;7.950;2023-09-19T03:47:05;96519.97;;;13.33;100.00
55032;BME280;40928;51.076;7.950;2023-09-19T03:49:32;96516.75;;;13.20;100.00
55032;BME280;40928;51.076;7.950;2023-09-19T03:51:59;96523.47;;;13.28;100.00
55032;BME280;40928;51.076;7.950;2023-09-19T03:54:25;96523.19;;;13.30;100.00
55032;BME280;40928;51.076;7.950;2023-09-19T03:56:51;96524.25;;;13.13;100.00
55032;BME280;40928;51.076;7.950;2023-09-19T03:59:16;96521.03;;;13.06;100.00
55032;BME280;40928;51.076;7.950;2023-09-19T04:01:43;96521.56;;;13.18;100.00
55032;BME280;40928;51.076;7.950;2023-09-19T04:04:09;96522.66;;;13.17;100.00
55032;BME280;40928;51.076;7.950;2023-09-19T04:06:36;96521.31;;;13.09;100.00
55032;BME280;40928;51.076;7.950;2023-09-19T04:09:03;96518.06;;;13.02;100.00
55032;BME280;40928;51.076;7.950;2023-09-19T04:11:29;96528.00;;;13.07;100.00
55032;BME280;40928;51.076;7.950;2023-09-19T04:13:56;96525.84;;;12.99;100.00
55032;BME280;40928;51.076;7.950;2023-09-19T04:16:22;96529.59;;;12.98;100.00
55032;BME280;40928;51.076;7.950;2023-09-19T04:18:47;96530.16;;;13.05;100.00
55032;BME280;40928;51.076;7.950;2023-09-19T04:21:13;96532.81;;;12.89;100.00
55032;BME280;40928;51.076;7.950;2023-09-19T04:23:38;96523.16;;;12.88;100.00
55032;BME280;40928;51.076;7.950;2023-09-19T04:26:04;96525.53;;;12.85;100.00
55032;BME280;40928;51.076;7.950;2023-09-19T04:28:30;96531.72;;;12.80;100.00
55032;BME280;40928;51.076;7.950;2023-09-19T04:30:56;96527.44;;;12.89;100.00
55032;BME280;40928;51.076;7.950;2023-09-19T04:33:24;96527.44;;;12.84;100.00
55032;BME280;40928;51.076;7.950;2023-09-19T04:35:50;96538.13;;;12.79;100.00
55032;BME280;40928;51.076;7.950;2023-09-19T04:38:20;96538.13;;;12.74;100.00
55032;BME280;40928;51.076;7.950;2023-09-19T04:40:46;96537.88;;;12.75;100.00
55032;BME280;40928;51.076;7.950;2023-09-19T04:43:12;96531.16;;;12.73;100.00
55032;BME280;40928;51.076;7.950;2023-09-19T04:45:39;96534.91;;;12.77;100.00
55032;BME280;40928;51.076;7.950;2023-09-19T04:48:05;96534.91;;;12.67;100.00
55032;BME280;40928;51.076;7.950;2023-09-19T04:50:34;96530.84;;;12.59;100.00
55032;BME280;40928;51.076;7.950;2023-09-19T04:53:00;96534.34;;;12.59;100.00
55032;BME280;40928;51.076;7.950;2023-09-19T04:55:26;96535.16;;;12.60;100.00
55032;BME280;40928;51.076;7.950;2023-09-19T04:57:52;96533.81;;;12.57;100.00
55032;BME280;40928;51.076;7.950;2023-09-19T05:00:22;96534.88;;;12.56;100.00
55032;BME280;40928;51.076;7.950;2023-09-19T05:02:55;96544.78;;;12.61;100.00
55032;BME280;40928;51.076;7.950;2023-09-19T05:05:24;96545.84;;;12.49;100.00
55032;BME280;40928;51.076;7.950;2023-09-19T05:07:51;96558.13;;;12.45;100.00
55032;BME280;40928;51.076;7.950;2023-09-19T05:10:19;96545.81;;;12.44;100.00
55032;BME280;40928;51.076;7.950;2023-09-19T05:12:44;96550.34;;;12.39;100.00
55032;BME280;40928;51.076;7.950;2023-09-19T05:15:16;96558.09;;;12.40;100.00
55032;BME280;40928;51.076;7.950;2023-09-19T05:17:49;96561.56;;;12.36;100.00
55032;BME280;40928;51.076;7.950;2023-09-19T05:20:16;96563.19;;;12.37;100.00
55032;BME280;40928;51.076;7.950;2023-09-19T05:22:43;96557.84;;;12.37;100.00
55032;BME280;40928;51.076;7.950;2023-09-19T05:25:11;96559.41;;;12.32;100.00
55032;BME280;40928;51.076;7.950;2023-09-19T05:27:42;96562.09;;;12.32;100.00
55032;BME280;40928;51.076;7.950;2023-09-19T05:30:08;96558.88;;;12.30;100.00
55032;BME280;40928;51.076;7.950;2023-09-19T05:32:34;96572.00;;;12.32;100.00
55032;BME280;40928;51.076;7.950;2023-09-19T05:35:00;96566.13;;;12.35;100.00
55032;BME280;40928;51.076;7.950;2023-09-19T05:37:25;96565.03;;;12.31;100.00
55032;BME280;40928;51.076;7.950;2023-09-19T05:39:51;96579.22;;;12.31;100.00
55032;BME280;40928;51.076;7.950;2023-09-19T05:42:19;96585.94;;;12.39;100.00
55032;BME280;40928;51.076;7.950;2023-09-19T05:44:45;96585.66;;;12.36;100.00
55032;BME280;40928;51.076;7.950;2023-09-19T05:47:10;96588.63;;;12.39;100.00
55032;BME280;40928;51.076;7.950;2023-09-19T05:49:36;96591.78;;;12.26;100.00
55032;BME280;40928;51.076;7.950;2023-09-19T05:52:08;96592.06;;;12.24;100.00
55032;BME280;40928;51.076;7.950;2023-09-19T05:54:33;96603.78;;;12.18;100.00
55032;BME280;40928;51.076;7.950;2023-09-19T05:57:03;96601.69;;;12.25;100.00
55032;BME280;40928;51.076;7.950;2023-09-19T05:59:28;96607.03;;;12.25;100.00
55032;BME280;40928;51.076;7.950;2023-09-19T06:01:54;96617.47;;;12.27;100.00
55032;BME280;40928;51.076;7.950;2023-09-19T06:04:20;96620.44;;;12.25;100.00
55032;BME280;40928;51.076;7.950;2023-09-19T06:06:46;96618.59;;;12.31;100.00
55032;BME280;40928;51.076;7.950;2023-09-19T06:09:14;96624.69;;;12.21;100.00
55032;BME280;40928;51.076;7.950;2023-09-19T06:11:41;96629.25;;;12.26;100.00
55032;BME280;40928;51.076;7.950;2023-09-19T06:14:07;96634.13;;;12.34;100.00
55032;BME280;40928;51.076;7.950;2023-09-19T06:16:33;96637.56;;;12.24;100.00
55032;BME280;40928;51.076;7.950;2023-09-19T06:18:58;96634.66;;;12.31;100.00
55032;BME280;40928;51.076;7.950;2023-09-19T06:21:26;96633.06;;;12.35;100.00
55032;BME280;40928;51.076;7.950;2023-09-19T06:23:53;96636.03;;;12.39;100.00
55032;BME280;40928;51.076;7.950;2023-09-19T06:26:19;96628.00;;;12.39;100.00
55032;BME280;40928;51.076;7.950;2023-09-19T06:28:44;96627.22;;;12.43;100.00
55032;BME280;40928;51.076;7.950;2023-09-19T06:31:10;96634.72;;;12.46;100.00
55032;BME280;40928;51.076;7.950;2023-09-19T06:33:36;96636.38;;;12.53;100.00
55032;BME280;40928;51.076;7.950;2023-09-19T06:36:06;96645.75;;;12.55;100.00
55032;BME280;40928;51.076;7.950;2023-09-19T06:38:32;96649.22;;;12.56;100.00
55032;BME280;40928;51.076;7.950;2023-09-19T06:41:01;96655.91;;;12.53;100.00
55032;BME280;40928;51.076;7.950;2023-09-19T06:43:31;96653.19;;;12.48;100.00
55032;BME280;40928;51.076;7.950;2023-09-19T06:45:58;96661.53;;;12.52;100.00
55032;BME280;40928;51.076;7.950;2023-09-19T06:48:23;96664.22;;;12.57;100.00
55032;BME280;40928;51.076;7.950;2023-09-19T06:50:58;96664.00;;;12.63;100.00
55032;BME280;40928;51.076;7.950;2023-09-19T06:53:27;96671.50;;;12.67;100.00
55032;BME280;40928;51.076;7.950;2023-09-19T06:55:52;96666.16;;;12.67;100.00
55032;BME280;40928;51.076;7.950;2023-09-19T06:58:18;96668.31;;;12.70;100.00
55032;BME280;40928;51.076;7.950;2023-09-19T07:00:45;96663.47;;;12.67;100.00
55032;BME280;40928;51.076;7.950;2023-09-19T07:03:13;96670.41;;;12.57;100.00
55032;BME280;40928;51.076;7.950;2023-09-19T07:05:40;96665.88;;;12.63;100.00
55032;BME280;40928;51.076;7.950;2023-09-19T07:08:09;96679.31;;;12.68;100.00
55032;BME280;40928;51.076;7.950;2023-09-19T07:10:38;96671.56;;;12.82;100.00
55032;BME280;40928;51.076;7.950;2023-09-19T07:13:07;96679.38;;;12.84;100.00
55032;BME280;40928;51.076;7.950;2023-09-19T07:15:36;96676.63;;;12.68;100.00
55032;BME280;40928;51.076;7.950;2023-09-19T07:18:05;96676.94;;;12.82;100.00
55032;BME280;40928;51.076;7.950;2023-09-19T07:20:31;96666.72;;;12.79;100.00
55032;BME280;40928;51.076;7.950;2023-09-19T07:22:58;96671.84;;;12.86;100.00
55032;BME280;40928;51.076;7.950;2023-09-19T07:25:29;96673.78;;;12.90;100.00
55032;BME280;40928;51.076;7.950;2023-09-19T07:27:59;96672.97;;;13.00;100.00
55032;BME280;40928;51.076;7.950;2023-09-19T07:30:27;96671.41;;;13.09;100.00
55032;BME280;40928;51.076;7.950;2023-09-19T07:32:53;96681.88;;;13.16;100.00
55032;BME280;40928;51.076;7.950;2023-09-19T07:35:19;96685.13;;;13.18;100.00
55032;BME280;40928;51.076;7.950;2023-09-19T07:37:48;96688.88;;;13.22;100.00
55032;BME280;40928;51.076;7.950;2023-09-19T07:40:21;96696.38;;;13.25;100.00
55032;BME280;40928;51.076;7.950;2023-09-19T07:42:49;96694.25;;;13.22;100.00
55032;BME280;40928;51.076;7.950;2023-09-19T07:45:15;96692.16;;;13.40;100.00
55032;BME280;40928;51.076;7.950;2023-09-19T07:47:49;96687.28;;;13.27;100.00
55032;BME280;40928;51.076;7.950;2023-09-19T07:50:16;96698.03;;;13.37;100.00
55032;BME280;40928;51.076;7.950;2023-09-19T07:59:15;96693.81;;;13.62;100.00
55032;BME280;40928;51.076;7.950;2023-09-19T08:02:08;96705.06;;;13.48;100.00
55032;BME280;40928;51.076;7.950;2023-09-19T08:05:11;96707.78;;;13.64;100.00
55032;BME280;40928;51.076;7.950;2023-09-19T08:07:37;96704.00;;;13.54;100.00
55032;BME280;40928;51.076;7.950;2023-09-19T08:10:07;96708.84;;;13.73;100.00
55032;BME280;40928;51.076;7.950;2023-09-19T08:12:40;96708.03;;;13.67;100.00
55032;BME280;40928;51.076;7.950;2023-09-19T08:15:19;96710.47;;;13.69;100.00
55032;BME280;40928;51.076;7.950;2023-09-19T08:17:45;96710.47;;;13.69;100.00
55032;BME280;40928;51.076;7.950;2023-09-19T08:20:12;96714.50;;;13.72;100.00
55032;BME280;40928;51.076;7.950;2023-09-19T08:22:50;96713.13;;;13.74;100.00
55032;BME280;40928;51.076;7.950;2023-09-19T08:25:23;96713.94;;;13.69;100.00
55032;BME280;40928;51.076;7.950;2023-09-19T08:27:49;96711.00;;;13.66;100.00
55032;BME280;40928;51.076;7.950;2023-09-19T08:30:29;96724.94;;;13.68;100.00
55032;BME280;40928;51.076;7.950;2023-09-19T08:33:02;96726.00;;;13.72;100.00
55032;BME280;40928;51.076;7.950;2023-09-19T08:35:30;96714.50;;;13.77;100.00
55032;BME280;40928;51.076;7.950;2023-09-19T08:37:56;96715.56;;;13.70;100.00
55032;BME280;40928;51.076;7.950;2023-09-19T08:40:22;96715.28;;;13.77;100.00
55032;BME280;40928;51.076;7.950;2023-09-19T08:42:52;96715.84;;;13.79;100.00
55032;BME280;40928;51.076;7.950;2023-09-19T08:45:23;96717.97;;;13.88;100.00
55032;BME280;40928;51.076;7.950;2023-09-19T08:50:53;96715.03;;;13.89;100.00
55032;BME280;40928;51.076;7.950;2023-09-19T08:53:30;96727.66;;;13.83;100.00
55032;BME280;40928;51.076;7.950;2023-09-19T08:55:59;96722.00;;;13.75;100.00
55032;BME280;40928;51.076;7.950;2023-09-19T08:58:31;96726.03;;;13.77;100.00
55032;BME280;40928;51.076;7.950;2023-09-19T09:01:00;96727.63;;;13.89;100.00
55032;BME280;40928;51.076;7.950;2023-09-19T09:03:32;96725.75;;;14.10;100.00
55032;BME280;40928;51.076;7.950;2023-09-19T09:05:58;96734.66;;;14.15;100.00
55032;BME280;40928;51.076;7.950;2023-09-19T09:08:24;96730.63;;;14.03;100.00
55032;BME280;40928;51.076;7.950;2023-09-19T09:10:51;96738.69;;;14.08;100.00
55032;BME280;40928;51.076;7.950;2023-09-19T09:13:17;96746.72;;;14.08;100.00
55032;BME280;40928;51.076;7.950;2023-09-19T09:15:43;96748.06;;;14.15;100.00
55032;BME280;40928;51.076;7.950;2023-09-19T09:18:10;96738.13;;;14.21;100.00
55032;BME280;40928;51.076;7.950;2023-09-19T09:20:36;96738.13;;;14.21;100.00
55032;BME280;40928;51.076;7.950;2023-09-19T09:23:01;96743.50;;;14.26;100.00
55032;BME280;40928;51.076;7.950;2023-09-19T09:28:19;96748.59;;;14.33;100.00
55032;BME280;40928;51.076;7.950;2023-09-19T09:30:45;96749.13;;;14.40;100.00
55032;BME280;40928;51.076;7.950;2023-09-19T09:33:12;96745.88;;;14.59;100.00
55032;BME280;40928;51.076;7.950;2023-09-19T09:35:52;96752.88;;;14.55;100.00
55032;BME280;40928;51.076;7.950;2023-09-19T09:38:22;96762.53;;;14.71;100.00
55032;BME280;40928;51.076;7.950;2023-09-19T09:40:56;96749.91;;;14.72;100.00
55032;BME280;40928;51.076;7.950;2023-09-19T09:46:07;96750.69;;;14.88;100.00
55032;BME280;40928;51.076;7.950;2023-09-19T09:49:05;96745.81;;;15.00;100.00
55032;BME280;40928;51.076;7.950;2023-09-19T09:52:04;96736.16;;;14.94;100.00
55032;BME280;40928;51.076;7.950;2023-09-19T09:54:33;96742.56;;;15.09;100.00
55032;BME280;40928;51.076;7.950;2023-09-19T09:57:09;96739.50;;;15.31;100.00
55032;BME280;40928;51.076;7.950;2023-09-19T09:59:55;96746.75;;;15.35;100.00
55032;BME280;40928;51.076;7.950;2023-09-19T10:02:30;96747.22;;;15.43;100.00
55032;BME280;40928;51.076;7.950;2023-09-19T10:07:47;96748.59;;;15.45;100.00
55032;BME280;40928;51.076;7.950;2023-09-19T10:12:55;96731.66;;;15.90;100.00
55032;BME280;40928;51.076;7.950;2023-09-19T10:15:31;96740.16;;;16.37;100.00
55032;BME280;40928;51.076;7.950;2023-09-19T10:18:00;96722.88;;;16.43;100.00
55032;BME280;40928;51.076;7.950;2023-09-19T10:20:28;96729.09;;;16.68;100.00
55032;BME280;40928;51.076;7.950;2023-09-19T10:23:07;96724.63;;;16.82;100.00
55032;BME280;40928;51.076;7.950;2023-09-19T10:25:41;96719.72;;;17.14;100.00
55032;BME280;40928;51.076;7.950;2023-09-19T10:28:08;96717.63;;;17.05;100.00
55032;BME280;40928;51.076;7.950;2023-09-19T10:30:41;96706.72;;;16.97;100.00
55032;BME280;40928;51.076;7.950;2023-09-19T10:33:13;96719.91;;;16.98;99.74
55032;BME280;40928;51.076;7.950;2023-09-19T10:35:42;96713.56;;;16.84;100.00
55032;BME280;40928;51.076;7.950;2023-09-19T10:38:10;96720.47;;;16.90;99.70
55032;BME280;40928;51.076;7.950;2023-09-19T10:40:37;96714.81;;;16.97;98.29
55032;BME280;40928;51.076;7.950;2023-09-19T10:43:06;96716.06;;;16.75;100.00
55032;BME280;40928;51.076;7.950;2023-09-19T10:45:35;96714.66;;;16.53;100.00
55032;BME280;40928;51.076;7.950;2023-09-19T10:48:04;96718.69;;;16.26;100.00
55032;BME280;40928;51.076;7.950;2023-09-19T10:50:36;96720.94;;;16.19;100.00
55032;BME280;40928;51.076;7.950;2023-09-19T10:53:07;96725.16;;;15.96;100.00
55032;BME280;40928;51.076;7.950;2023-09-19T10:55:36;96721.41;;;15.92;100.00
55032;BME280;40928;51.076;7.950;2023-09-19T10:58:03;96722.25;;;15.82;100.00
55032;BME280;40928;51.076;7.950;2023-09-19T11:01:08;96713.94;;;15.78;100.00
55032;BME280;40928;51.076;7.950;2023-09-19T11:03:38;96713.19;;;15.67;100.00
55032;BME280;40928;51.076;7.950;2023-09-19T11:11:42;96702.44;;;16.90;100.00
55032;BME280;40928;51.076;7.950;2023-09-19T11:25:46;96700.31;;;17.31;97.29
55032;BME280;40928;51.076;7.950;2023-09-19T11:30:43;96693.91;;;18.36;91.16
55032;BME280;40928;51.076;7.950;2023-09-19T11:33:26;96702.44;;;18.71;86.90
55032;BME280;40928;51.076;7.950;2023-09-19T11:36:14;96704.88;;;18.26;85.73
55032;BME280;40928;51.076;7.950;2023-09-19T11:43:47;96697.16;;;18.66;81.11
55032;BME280;40928;51.076;7.950;2023-09-19T11:46:13;96689.50;;;18.40;82.20
55032;BME280;40928;51.076;7.950;2023-09-19T11:48:43;96686.41;;;18.14;81.23
55032;BME280;40928;51.076;7.950;2023-09-19T11:51:27;96695.28;;;17.81;83.80
55032;BME280;40928;51.076;7.950;2023-09-19T11:53:53;96699.19;;;18.41;80.71
55032;BME280;40928;51.076;7.950;2023-09-19T11:56:23;96710.38;;;19.38;76.43
55032;BME280;40928;51.076;7.950;2023-09-19T11:58:52;96701.47;;;19.23;74.69
55032;BME280;40928;51.076;7.950;2023-09-19T12:03:55;96708.78;;;19.09;75.82
55032;BME280;40928;51.076;7.950;2023-09-19T12:06:26;96718.13;;;19.30;73.78
55032;BME280;40928;51.076;7.950;2023-09-19T12:08:52;96715.97;;;19.41;75.96
55032;BME280;40928;51.076;7.950;2023-09-19T12:11:21;96725.63;;;18.92;75.50
55032;BME280;40928;51.076;7.950;2023-09-19T12:13:49;96715.88;;;17.96;77.35
55032;BME280;40928;51.076;7.950;2023-09-19T12:16:16;96701.34;;;17.92;79.35
55032;BME280;40928;51.076;7.950;2023-09-19T12:18:45;96705.75;;;17.07;82.65
55032;BME280;40928;51.076;7.950;2023-09-19T12:24:12;96714.91;;;17.30;83.01
55032;BME280;40928;51.076;7.950;2023-09-19T12:26:45;96713.41;;;17.62;80.87
55032;BME280;40928;51.076;7.950;2023-09-19T12:29:20;96715.78;;;17.44;81.96
55032;BME280;40928;51.076;7.950;2023-09-19T12:34:26;96719.84;;;17.47;82.46
55032;BME280;40928;51.076;7.950;2023-09-19T12:37:04;96721.06;;;17.74;83.51
55032;BME280;40928;51.076;7.950;2023-09-19T12:39:44;96714.13;;;17.48;84.27
55032;BME280;40928;51.076;7.950;2023-09-19T12:42:20;96707.22;;;17.42;84.00
55032;BME280;40928;51.076;7.950;2023-09-19T12:44:48;96712.94;;;17.93;83.14
55032;BME280;40928;51.076;7.950;2023-09-19T12:47:16;96694.00;;;17.98;84.41
55032;BME280;40928;51.076;7.950;2023-09-19T12:53:02;96699.31;;;17.65;86.01
55032;BME280;40928;51.076;7.950;2023-09-19T13:00:43;96696.09;;;17.25;91.19
55032;BME280;40928;51.076;7.950;2023-09-19T13:03:15;96696.69;;;17.22;92.19
55032;BME280;40928;51.076;7.950;2023-09-19T13:06:07;96699.88;;;17.04;93.60
55032;BME280;40928;51.076;7.950;2023-09-19T13:08:38;96687.91;;;17.11;95.46
55032;BME280;40928;51.076;7.950;2023-09-19T13:11:06;96675.97;;;17.17;93.09
55032;BME280;40928;51.076;7.950;2023-09-19T13:13:36;96679.63;;;17.26;91.16
55032;BME280;40928;51.076;7.950;2023-09-19T13:16:03;96681.00;;;18.00;90.38
55032;BME280;40928;51.076;7.950;2023-09-19T13:18:41;96679.75;;;17.92;87.50
55032;BME280;40928;51.076;7.950;2023-09-19T13:21:09;96681.50;;;18.91;84.58
55032;BME280;40928;51.076;7.950;2023-09-19T13:23:44;96673.91;;;19.21;82.30
55032;BME280;40928;51.076;7.950;2023-09-19T13:26:10;96673.13;;;19.07;79.39
55032;BME280;40928;51.076;7.950;2023-09-19T13:28:38;96681.50;;;19.19;78.64
55032;BME280;40928;51.076;7.950;2023-09-19T13:31:03;96670.50;;;18.87;75.61
55032;BME280;40928;51.076;7.950;2023-09-19T13:33:29;96665.84;;;18.46;78.40
55032;BME280;40928;51.076;7.950;2023-09-19T13:35:54;96661.16;;;18.94;75.07
55032;BME280;40928;51.076;7.950;2023-09-19T13:38:22;96653.84;;;19.08;72.66
55032;BME280;40928;51.076;7.950;2023-09-19T13:40:48;96645.25;;;19.06;71.77
55032;BME280;40928;51.076;7.950;2023-09-19T13:43:15;96633.47;;;19.25;70.83
55032;BME280;40928;51.076;7.950;2023-09-19T13:45:41;96639.69;;;19.62;71.14
55032;BME280;40928;51.076;7.950;2023-09-19T13:48:07;96655.53;;;19.55;69.39
55032;BME280;40928;51.076;7.950;2023-09-19T13:50:36;96650.00;;;19.97;70.70
55032;BME280;40928;51.076;7.950;2023-09-19T13:53:02;96642.19;;;20.27;67.38
55032;BME280;40928;51.076;7.950;2023-09-19T13:55:28;96654.22;;;20.43;64.93
55032;BME280;40928;51.076;7.950;2023-09-19T13:57:54;96657.00;;;20.20;63.38
55032;BME280;40928;51.076;7.950;2023-09-19T14:00:21;96643.59;;;19.92;64.84
55032;BME280;40928;51.076;7.950;2023-09-19T14:02:48;96656.88;;;19.80;66.84
55032;BME280;40928;51.076;7.950;2023-09-19T14:05:14;96646.25;;;19.47;67.22
55032;BME280;40928;51.076;7.950;2023-09-19T14:07:44;96643.53;;;19.47;67.27
55032;BME280;40928;51.076;7.950;2023-09-19T14:10:11;96656.88;;;19.07;68.92
55032;BME280;40928;51.076;7.950;2023-09-19T14:12:37;96648.47;;;18.94;69.29
55032;BME280;40928;51.076;7.950;2023-09-19T14:15:07;96646.03;;;19.21;69.25
55032;BME280;40928;51.076;7.950;2023-09-19T14:17:33;96644.63;;;19.23;68.76
55032;BME280;40928;51.076;7.950;2023-09-19T14:19:59;96644.34;;;19.47;68.83
55032;BME280;40928;51.076;7.950;2023-09-19T14:22:24;96640.97;;;19.65;67.33